Time;durP1;ratioP1;P1;durP2;ratioP2;P2;SDS_P1;SDS_P2;PMS_P1;PMS_P2;Temp;Humidity;BMP_temperature;BMP_pressure;BME280_temperature;BME280_humidity;BME280_pressure;Samples;Min_cycle;Max_cycle;Signal;HPM_P1;HPM_P2
2023/06/18 00:00:40;;;;;;;22.80;16.95;;;16.40;99.90;;;;;;5048912;28;20079;-73
2023/06/18 00:03:06;;;;;;;19.95;14.35;;;16.40;99.90;;;;;;5048603;28;20513;-72
2023/06/18 00:05:32;;;;;;;21.20;16.20;;;16.40;99.90;;;;;;5050370;28;20036;-73
2023/06/18 00:07:58;;;;;;;24.42;17.67;;;16.50;99.90;;;;;;5049824;28;20029;-74
2023/06/18 00:10:24;;;;;;;18.15;14.98;;;16.40;99.90;;;;;;5049601;28;20308;-74
2023/06/18 00:12:50;;;;;;;21.55;16.65;;;16.40;99.90;;;;;;5050049;28;20025;-72
2023/06/18 00:15:16;;;;;;;19.50;16.00;;;16.40;99.90;;;;;;5049287;28;20017;-72
2023/06/18 00:17:41;;;;;;;26.40;19.23;;;16.40;99.90;;;;;;5049737;28;20025;-72
2023/06/18 00:20:08;;;;;;;28.35;20.10;;;16.40;99.90;;;;;;5053354;28;20029;-72
2023/06/18 00:22:38;;;;;;;29.40;20.45;;;16.30;99.90;;;;;;5053965;28;20104;-72
2023/06/18 00:25:06;;;;;;;20.52;16.70;;;16.30;99.90;;;;;;5053425;28;20442;-72
2023/06/18 00:27:32;;;;;;;25.98;18.77;;;16.30;99.90;;;;;;5053567;28;20108;-72
2023/06/18 00:29:59;;;;;;;23.98;16.75;;;16.20;99.90;;;;;;5052937;28;20078;-74
2023/06/18 00:32:25;;;;;;;26.10;19.13;;;16.30;99.90;;;;;;5053539;28;20032;-73
2023/06/18 00:34:53;;;;;;;28.77;19.73;;;16.30;99.90;;;;;;5053299;28;20036;-71
2023/06/18 00:37:20;;;;;;;25.58;18.00;;;16.30;99.90;;;;;;5052761;28;20036;-72
2023/06/18 00:39:46;;;;;;;26.95;18.75;;;16.30;99.90;;;;;;5053148;28;20037;-72
2023/06/18 00:42:13;;;;;;;17.45;15.00;;;16.30;99.90;;;;;;5053149;28;20158;-72
2023/06/18 00:44:42;;;;;;;20.02;15.63;;;16.30;99.90;;;;;;5051848;28;20052;-71
2023/06/18 00:47:12;;;;;;;23.80;15.70;;;16.30;99.90;;;;;;5052739;28;20032;-72
2023/06/18 00:49:40;;;;;;;20.38;15.82;;;16.30;99.90;;;;;;5052885;28;20079;-72
2023/06/18 00:52:08;;;;;;;23.70;16.25;;;16.30;99.90;;;;;;5052804;28;20032;-72
2023/06/18 00:54:35;;;;;;;23.65;17.27;;;16.20;99.90;;;;;;5053035;28;20230;-72
2023/06/18 00:57:03;;;;;;;22.17;16.25;;;16.30;99.90;;;;;;5052484;28;20029;-72
2023/06/18 00:59:29;;;;;;;25.65;17.52;;;16.30;99.90;;;;;;5052975;28;20029;-72
2023/06/18 01:01:56;;;;;;;20.65;15.48;;;16.30;99.90;;;;;;5053160;28;20041;-72
2023/06/18 01:04:27;;;;;;;28.85;19.38;;;16.20;99.90;;;;;;5052439;28;20112;-72
2023/06/18 01:06:57;;;;;;;22.95;17.23;;;16.10;99.90;;;;;;5053464;28;20021;-72
2023/06/18 01:09:25;;;;;;;23.65;16.67;;;16.10;99.90;;;;;;5053024;28;20146;-72
2023/06/18 01:11:52;;;;;;;29.42;18.23;;;16.20;99.90;;;;;;5053474;28;20057;-72
2023/06/18 01:14:22;;;;;;;23.73;18.00;;;16.10;99.90;;;;;;5053017;28;20031;-72
2023/06/18 01:16:49;;;;;;;27.67;19.25;;;16.10;99.90;;;;;;5052053;28;20063;-72
2023/06/18 01:19:47;;;;;;;30.45;19.75;;;16.10;99.90;;;;;;5052759;28;20123;-72
2023/06/18 01:22:26;;;;;;;29.48;20.77;;;16.10;99.90;;;;;;5037615;28;20047;-72
2023/06/18 01:25:02;;;;;;;31.25;20.17;;;16.10;99.90;;;;;;5053135;28;20021;-72
2023/06/18 01:27:33;;;;;;;33.40;22.27;;;16.10;99.90;;;;;;5052782;28;20509;-72
2023/06/18 01:30:03;;;;;;;38.80;24.20;;;16.10;99.90;;;;;;5051522;28;20037;-72
2023/06/18 01:32:29;;;;;;;40.13;23.40;;;16.00;99.90;;;;;;5052500;28;20355;-72
2023/06/18 01:34:55;;;;;;;42.13;25.20;;;16.10;99.90;;;;;;5051439;28;20159;-72
2023/06/18 01:37:31;;;;;;;43.70;24.50;;;16.00;99.90;;;;;;5051805;28;20079;-72
2023/06/18 01:40:15;;;;;;;57.38;28.00;;;16.10;99.90;;;;;;5052718;28;20114;-73
2023/06/18 01:43:01;;;;;;;50.38;28.30;;;16.10;99.90;;;;;;5052629;28;20048;-73
2023/06/18 01:45:36;;;;;;;54.28;30.10;;;16.10;99.90;;;;;;5050988;28;20459;-72
2023/06/18 01:48:05;;;;;;;44.95;27.13;;;16.00;99.90;;;;;;5052522;28;20053;-74
2023/06/18 01:50:34;;;;;;;45.55;26.35;;;16.00;99.90;;;;;;5052014;28;20040;-73
2023/06/18 01:53:02;;;;;;;43.22;26.42;;;16.00;99.90;;;;;;5052752;28;20028;-72
2023/06/18 01:55:29;;;;;;;44.10;28.13;;;16.00;99.90;;;;;;5052748;28;20021;-72
2023/06/18 01:57:56;;;;;;;52.97;26.98;;;16.00;99.90;;;;;;5053079;28;20124;-72
2023/06/18 02:00:22;;;;;;;47.80;26.05;;;16.00;99.90;;;;;;5052324;28;20060;-72
2023/06/18 02:02:51;;;;;;;39.28;23.27;;;16.00;99.90;;;;;;5052455;28;20118;-72
2023/06/18 02:05:17;;;;;;;36.65;22.58;;;16.10;99.90;;;;;;5051662;28;20088;-72
2023/06/18 02:07:42;;;;;;;44.50;24.80;;;16.10;99.90;;;;;;5052093;28;20035;-72
2023/06/18 02:10:09;;;;;;;38.42;23.40;;;16.20;99.90;;;;;;5051206;28;20033;-72
2023/06/18 02:12:34;;;;;;;41.42;24.55;;;16.10;99.90;;;;;;5051411;28;20021;-72
2023/06/18 02:15:00;;;;;;;41.00;24.55;;;16.10;99.90;;;;;;5051837;28;20396;-72
2023/06/18 02:17:26;;;;;;;44.03;24.90;;;16.20;99.90;;;;;;5050986;28;20070;-72
2023/06/18 02:19:52;;;;;;;44.92;25.27;;;16.10;99.90;;;;;;5050432;28;20405;-72
2023/06/18 02:22:17;;;;;;;44.95;26.25;;;16.20;99.90;;;;;;5050902;28;20017;-72
2023/06/18 02:24:44;;;;;;;43.38;25.83;;;16.20;99.90;;;;;;5051466;28;20107;-72
2023/06/18 02:27:10;;;;;;;45.38;26.65;;;16.20;99.90;;;;;;5050853;28;20045;-72
2023/06/18 02:29:36;;;;;;;43.67;25.73;;;16.30;99.90;;;;;;5051302;28;20063;-72
2023/06/18 02:32:02;;;;;;;41.42;23.48;;;16.30;99.90;;;;;;5051483;28;20455;-72
2023/06/18 02:34:28;;;;;;;47.85;27.83;;;16.30;99.90;;;;;;5050814;28;20032;-72
2023/06/18 02:36:54;;;;;;;42.00;25.10;;;16.30;99.90;;;;;;5051146;28;20032;-72
2023/06/18 02:39:21;;;;;;;45.50;26.02;;;16.30;99.90;;;;;;5050632;28;20032;-72
2023/06/18 02:41:47;;;;;;;45.33;26.35;;;16.30;99.90;;;;;;5049820;28;20191;-72
2023/06/18 02:44:12;;;;;;;41.80;25.25;;;16.30;99.90;;;;;;5050434;28;20473;-72
2023/06/18 02:46:38;;;;;;;37.13;24.83;;;16.30;99.90;;;;;;5051055;28;20187;-72
2023/06/18 02:49:04;;;;;;;28.25;19.95;;;16.30;99.90;;;;;;5051149;28;20087;-72
2023/06/18 02:51:30;;;;;;;32.53;21.33;;;16.40;99.90;;;;;;5051012;28;20025;-73
2023/06/18 02:53:55;;;;;;;32.83;21.95;;;16.40;99.90;;;;;;5051400;28;20051;-73
2023/06/18 02:56:21;;;;;;;35.47;22.42;;;16.40;99.90;;;;;;5049196;28;20112;-72
2023/06/18 02:58:51;;;;;;;42.00;25.45;;;16.40;99.90;;;;;;5051110;28;20074;-72
2023/06/18 03:01:17;;;;;;;49.13;28.95;;;16.50;99.90;;;;;;5050545;28;20031;-72
2023/06/18 03:03:43;;;;;;;38.88;25.52;;;16.50;99.90;;;;;;5050775;28;20029;-72
2023/06/18 03:06:08;;;;;;;46.22;26.92;;;16.40;99.90;;;;;;5050748;28;20379;-73
2023/06/18 03:08:34;;;;;;;42.20;26.45;;;16.50;99.90;;;;;;5050741;28;20498;-72
2023/06/18 03:11:00;;;;;;;42.88;26.40;;;16.50;99.90;;;;;;5050741;28;20025;-72
2023/06/18 03:13:26;;;;;;;37.72;24.10;;;16.50;99.90;;;;;;5049108;28;20029;-72
2023/06/18 03:15:51;;;;;;;36.92;24.13;;;16.60;99.90;;;;;;5050869;28;20100;-72
2023/06/18 03:18:17;;;;;;;31.35;21.55;;;16.60;99.90;;;;;;5048949;28;20066;-72
2023/06/18 03:20:43;;;;;;;32.45;23.17;;;16.60;99.90;;;;;;5050834;28;20108;-72
2023/06/18 03:23:08;;;;;;;32.15;22.83;;;16.60;99.90;;;;;;5050859;28;20147;-74
2023/06/18 03:25:34;;;;;;;35.67;23.52;;;16.60;99.90;;;;;;5051117;28;20419;-72
2023/06/18 03:28:00;;;;;;;28.23;20.75;;;16.60;99.90;;;;;;5050734;28;20363;-73
2023/06/18 03:30:26;;;;;;;36.05;23.65;;;16.70;99.90;;;;;;5049677;28;20037;-73
2023/06/18 03:32:55;;;;;;;32.75;21.70;;;16.60;99.90;;;;;;5050755;28;20036;-72
2023/06/18 03:35:21;;;;;;;32.15;22.02;;;16.60;99.90;;;;;;5050150;28;20061;-72
2023/06/18 03:37:47;;;;;;;34.47;23.00;;;16.60;99.90;;;;;;5049304;28;20032;-72
2023/06/18 03:40:13;;;;;;;29.88;20.80;;;16.60;99.90;;;;;;5050098;28;20024;-73
2023/06/18 03:42:39;;;;;;;23.60;17.98;;;16.60;99.90;;;;;;5050934;28;20021;-72
2023/06/18 03:45:05;;;;;;;33.80;21.98;;;16.60;99.90;;;;;;5050631;28;20033;-72
2023/06/18 03:47:31;;;;;;;35.20;23.17;;;16.70;99.90;;;;;;5049494;28;20036;-72
2023/06/18 03:49:57;;;;;;;33.65;22.67;;;16.70;99.90;;;;;;5050576;28;20037;-72
2023/06/18 03:52:23;;;;;;;44.95;27.17;;;16.70;99.90;;;;;;5049142;28;20463;-72
2023/06/18 03:54:48;;;;;;;38.90;25.05;;;16.60;99.90;;;;;;5050244;28;20036;-72
2023/06/18 03:57:14;;;;;;;40.50;25.38;;;16.60;99.90;;;;;;5049953;28;20541;-72
2023/06/18 03:59:40;;;;;;;46.72;27.77;;;16.50;99.90;;;;;;5050526;28;20029;-71
2023/06/18 04:02:06;;;;;;;42.83;26.00;;;16.50;99.90;;;;;;5050353;28;20471;-71
2023/06/18 04:04:31;;;;;;;39.72;26.05;;;16.50;99.90;;;;;;5049727;28;20040;-71
2023/06/18 04:06:57;;;;;;;33.10;21.98;;;16.40;99.90;;;;;;5050992;28;20040;-71
2023/06/18 04:09:23;;;;;;;50.30;27.13;;;16.50;99.90;;;;;;5049664;28;20057;-71
2023/06/18 04:11:49;;;;;;;40.05;25.52;;;16.50;99.90;;;;;;5048475;28;20123;-71
2023/06/18 04:14:15;;;;;;;39.85;24.75;;;16.50;99.90;;;;;;5049717;28;20020;-72
2023/06/18 04:16:40;;;;;;;44.38;25.80;;;16.50;99.90;;;;;;5049962;28;20374;-71
2023/06/18 04:19:06;;;;;;;41.20;26.45;;;16.50;99.90;;;;;;5049524;28;20025;-71
2023/06/18 04:21:34;;;;;;;43.75;25.67;;;16.40;99.90;;;;;;5049805;28;20029;-72
2023/06/18 04:24:01;;;;;;;45.38;26.98;;;16.50;99.90;;;;;;5048730;28;20039;-72
2023/06/18 04:26:27;;;;;;;49.28;28.77;;;16.40;99.90;;;;;;5049054;28;20039;-71
2023/06/18 04:28:53;;;;;;;45.72;29.00;;;16.40;99.90;;;;;;5050129;28;20518;-72
2023/06/18 04:31:18;;;;;;;47.00;28.38;;;16.40;99.90;;;;;;5049518;28;20079;-72
2023/06/18 04:33:45;;;;;;;49.28;28.23;;;16.40;99.90;;;;;;5050258;28;20439;-72
2023/06/18 04:36:11;;;;;;;58.88;31.80;;;16.40;99.90;;;;;;5050385;28;20219;-72
2023/06/18 04:38:37;;;;;;;59.45;32.67;;;16.40;99.90;;;;;;5049946;28;20021;-71
2023/06/18 04:41:03;;;;;;;68.57;34.42;;;16.40;99.90;;;;;;5050191;28;20112;-72
2023/06/18 04:43:28;;;;;;;60.70;34.13;;;16.30;99.90;;;;;;5048407;28;20113;-72
2023/06/18 04:45:54;;;;;;;46.25;25.30;;;16.40;99.90;;;;;;5050207;28;20413;-72
2023/06/18 04:48:20;;;;;;;59.72;31.90;;;16.40;99.90;;;;;;5049810;28;20036;-72
2023/06/18 04:50:46;;;;;;;52.10;28.52;;;16.40;99.90;;;;;;5050206;28;20037;-72
2023/06/18 04:53:12;;;;;;;48.03;26.85;;;16.40;99.90;;;;;;5050223;28;20044;-73
2023/06/18 04:55:38;;;;;;;47.50;26.88;;;16.50;99.90;;;;;;5049583;28;20045;-71
2023/06/18 04:58:06;;;;;;;53.50;29.42;;;16.50;99.90;;;;;;5049847;28;20029;-72
2023/06/18 05:00:33;;;;;;;52.50;28.77;;;16.40;99.90;;;;;;5049620;28;20033;-72
2023/06/18 05:03:00;;;;;;;42.22;24.70;;;16.40;99.90;;;;;;5050038;28;20025;-72
2023/06/18 05:05:26;;;;;;;51.53;28.17;;;16.50;99.90;;;;;;5050793;28;20060;-72
2023/06/18 05:07:52;;;;;;;46.47;27.20;;;16.50;99.90;;;;;;5053935;28;20096;-73
2023/06/18 05:10:18;;;;;;;45.53;26.63;;;16.50;99.90;;;;;;5053148;28;20121;-73
2023/06/18 05:12:43;;;;;;;44.35;25.13;;;16.60;99.90;;;;;;5053766;28;20029;-73
2023/06/18 05:15:10;;;;;;;47.22;27.08;;;16.60;99.90;;;;;;5053203;28;20028;-73
2023/06/18 05:17:35;;;;;;;47.28;26.02;;;16.50;99.90;;;;;;5052722;28;20098;-73
2023/06/18 05:20:03;;;;;;;47.58;26.75;;;16.50;99.90;;;;;;5053581;28;20033;-73
2023/06/18 05:22:30;;;;;;;44.92;24.92;;;16.50;99.90;;;;;;5052524;28;20029;-73
2023/06/18 05:24:59;;;;;;;47.30;26.55;;;16.50;99.90;;;;;;5053019;28;20037;-72
2023/06/18 05:27:25;;;;;;;37.83;22.50;;;16.50;99.90;;;;;;5052266;28;20099;-72
2023/06/18 05:29:51;;;;;;;45.35;26.30;;;16.50;99.90;;;;;;5051621;28;20032;-72
2023/06/18 05:32:17;;;;;;;50.67;27.95;;;16.50;99.90;;;;;;5052473;28;20021;-74
2023/06/18 05:34:42;;;;;;;44.92;25.85;;;16.50;99.90;;;;;;5053083;28;20451;-73
2023/06/18 05:37:08;;;;;;;41.90;26.38;;;16.60;99.90;;;;;;5052681;28;20082;-73
2023/06/18 05:39:35;;;;;;;42.95;26.58;;;16.60;99.90;;;;;;5052504;28;20485;-72
2023/06/18 05:42:00;;;;;;;42.20;26.63;;;16.50;99.90;;;;;;5052854;28;20036;-71
2023/06/18 05:44:26;;;;;;;38.65;23.83;;;16.50;99.90;;;;;;5051977;28;20025;-71
2023/06/18 05:46:52;;;;;;;35.17;23.33;;;16.50;99.90;;;;;;5052299;28;20025;-71
2023/06/18 05:49:17;;;;;;;47.17;27.33;;;16.50;99.90;;;;;;5052123;28;20033;-73
2023/06/18 05:51:45;;;;;;;40.03;25.05;;;16.50;99.90;;;;;;5052281;28;20029;-71
2023/06/18 05:54:10;;;;;;;47.05;27.40;;;16.60;99.90;;;;;;5052612;28;20040;-72
2023/06/18 05:56:36;;;;;;;52.60;29.38;;;16.50;99.90;;;;;;5051953;28;20029;-71
2023/06/18 05:59:02;;;;;;;52.53;28.65;;;16.50;99.90;;;;;;5052514;28;20057;-72
2023/06/18 06:01:27;;;;;;;49.38;28.35;;;16.50;99.90;;;;;;5051912;28;20025;-72
2023/06/18 06:03:53;;;;;;;42.20;24.75;;;16.50;99.90;;;;;;5052184;28;20501;-72
2023/06/18 06:06:19;;;;;;;50.28;28.13;;;16.50;99.90;;;;;;5052530;28;20036;-72
2023/06/18 06:08:45;;;;;;;54.80;29.38;;;16.50;99.90;;;;;;5052398;28;20435;-72
2023/06/18 06:11:11;;;;;;;52.67;29.23;;;16.50;99.90;;;;;;5052390;28;20060;-72
2023/06/18 06:13:37;;;;;;;44.95;27.05;;;16.50;99.90;;;;;;5051653;28;20028;-72
2023/06/18 06:16:02;;;;;;;52.58;30.40;;;16.50;99.90;;;;;;5051548;28;20029;-72
2023/06/18 06:18:28;;;;;;;47.05;26.52;;;16.50;99.90;;;;;;5051366;28;20021;-72
2023/06/18 06:20:54;;;;;;;50.22;27.90;;;16.50;99.90;;;;;;5051828;28;20404;-71
2023/06/18 06:23:20;;;;;;;50.55;26.33;;;16.50;99.90;;;;;;5051474;28;20359;-74
2023/06/18 06:25:45;;;;;;;48.08;26.70;;;16.60;99.90;;;;;;5051765;28;20116;-72
2023/06/18 06:28:11;;;;;;;45.55;26.75;;;16.60;99.90;;;;;;5051514;28;20045;-72
2023/06/18 06:30:37;;;;;;;44.35;26.95;;;16.60;99.90;;;;;;5050855;28;20524;-72
2023/06/18 06:33:03;;;;;;;41.50;24.90;;;16.60;99.90;;;;;;5051462;28;20017;-72
2023/06/18 06:35:29;;;;;;;36.67;23.85;;;16.70;99.90;;;;;;5051353;28;20505;-73
2023/06/18 06:37:55;;;;;;;40.70;24.83;;;16.60;99.90;;;;;;5051718;28;20043;-73
2023/06/18 06:40:21;;;;;;;33.53;23.13;;;16.70;99.90;;;;;;5051187;28;20044;-75
2023/06/18 06:42:47;;;;;;;33.08;20.83;;;16.70;99.90;;;;;;5051480;28;20041;-73
2023/06/18 06:45:13;;;;;;;37.60;22.25;;;16.80;99.90;;;;;;5033615;28;20025;-73
2023/06/18 06:47:38;;;;;;;30.83;21.30;;;16.90;99.90;;;;;;5050803;28;20025;-73
2023/06/18 06:50:05;;;;;;;29.05;19.85;;;16.90;99.90;;;;;;5050972;28;20033;-72
2023/06/18 06:52:30;;;;;;;26.52;18.92;;;17.00;99.90;;;;;;5050740;28;20477;-73
2023/06/18 06:54:56;;;;;;;28.73;19.30;;;17.00;99.90;;;;;;5050954;28;20025;-72
2023/06/18 06:57:22;;;;;;;28.00;18.65;;;17.20;99.90;;;;;;5049489;28;20077;-74
2023/06/18 06:59:48;;;;;;;29.67;20.35;;;17.20;99.90;;;;;;5051506;28;20485;-73
2023/06/18 07:02:13;;;;;;;26.15;18.58;;;17.20;99.90;;;;;;5050886;28;20059;-73
2023/06/18 07:04:45;;;;;;;29.38;20.67;;;17.30;99.90;;;;;;5050346;28;20450;-73
2023/06/18 07:07:13;;;;;;;31.92;21.55;;;17.30;99.90;;;;;;5051272;28;20032;-73
2023/06/18 07:09:39;;;;;;;30.15;21.55;;;17.40;99.90;;;;;;5050157;28;20039;-72
2023/06/18 07:12:05;;;;;;;32.33;21.60;;;17.40;99.90;;;;;;5050835;28;20025;-73
2023/06/18 07:14:30;;;;;;;30.48;21.80;;;17.30;99.90;;;;;;5049906;28;20025;-73
2023/06/18 07:16:57;;;;;;;34.10;22.95;;;17.40;99.90;;;;;;5050858;28;20359;-72
2023/06/18 07:19:23;;;;;;;30.15;21.85;;;17.50;99.90;;;;;;5050043;28;20366;-75
2023/06/18 07:21:50;;;;;;;35.58;23.33;;;17.60;99.90;;;;;;5050359;28;20047;-73
2023/06/18 07:24:16;;;;;;;37.13;22.90;;;17.50;99.90;;;;;;5050292;28;20079;-73
2023/06/18 07:26:42;;;;;;;33.88;23.23;;;17.50;99.90;;;;;;5048891;28;20827;-73
2023/06/18 07:29:08;;;;;;;30.63;21.83;;;17.50;99.90;;;;;;5050375;28;20048;-73
2023/06/18 07:31:34;;;;;;;29.33;20.95;;;17.70;99.90;;;;;;5049845;28;20036;-73
2023/06/18 07:34:00;;;;;;;29.50;21.88;;;17.80;99.90;;;;;;5050724;28;20025;-73
2023/06/18 07:36:25;;;;;;;26.52;19.63;;;17.80;99.90;;;;;;5049404;28;20040;-74
2023/06/18 07:38:51;;;;;;;28.45;20.00;;;18.00;99.90;;;;;;5050593;28;20029;-72
2023/06/18 07:41:17;;;;;;;29.73;20.45;;;18.10;99.90;;;;;;5050134;28;20048;-73
2023/06/18 07:43:43;;;;;;;26.20;19.55;;;18.30;99.90;;;;;;5049718;28;20029;-73
2023/06/18 07:46:09;;;;;;;23.63;18.20;;;18.20;99.90;;;;;;5050174;28;20032;-73
2023/06/18 07:48:36;;;;;;;25.45;18.52;;;18.30;99.90;;;;;;5049844;28;20107;-73
2023/06/18 07:51:03;;;;;;;24.52;17.70;;;18.10;99.90;;;;;;5050265;28;20033;-71
2023/06/18 07:53:28;;;;;;;25.25;18.98;;;18.00;99.90;;;;;;5050309;28;20116;-74
2023/06/18 07:55:55;;;;;;;30.75;19.55;;;17.80;99.90;;;;;;5050248;28;20098;-74
2023/06/18 07:58:20;;;;;;;22.80;17.75;;;17.90;99.90;;;;;;5050270;28;20099;-74
2023/06/18 08:00:46;;;;;;;25.83;17.67;;;18.00;99.90;;;;;;5049257;28;20784;-73
2023/06/18 08:03:12;;;;;;;22.73;18.67;;;18.00;99.90;;;;;;5050085;28;20068;-73
2023/06/18 08:05:37;;;;;;;26.55;18.92;;;18.10;99.90;;;;;;5049491;28;20032;-73
2023/06/18 08:08:03;;;;;;;26.63;18.50;;;18.20;99.90;;;;;;5050570;28;20423;-73
2023/06/18 08:10:29;;;;;;;25.67;18.25;;;18.20;99.90;;;;;;5049300;28;20474;-74
2023/06/18 08:12:55;;;;;;;22.55;16.90;;;18.30;99.90;;;;;;5050088;28;20434;-73
2023/06/18 08:15:22;;;;;;;28.35;18.50;;;18.40;99.90;;;;;;5050098;28;20044;-70
2023/06/18 08:17:48;;;;;;;22.13;16.73;;;18.40;99.90;;;;;;5048308;28;20029;-71
2023/06/18 08:20:14;;;;;;;18.80;14.70;;;18.30;99.90;;;;;;5050072;28;20105;-72
2023/06/18 08:22:40;;;;;;;19.20;14.63;;;18.10;99.90;;;;;;5049383;28;20425;-72
2023/06/18 08:25:06;;;;;;;19.10;16.83;;;18.00;99.90;;;;;;5049794;28;20029;-71
2023/06/18 08:27:33;;;;;;;21.40;16.38;;;17.90;99.90;;;;;;5048855;28;20049;-71
2023/06/18 08:29:58;;;;;;;19.75;14.77;;;17.80;99.90;;;;;;5050140;28;20078;-72
2023/06/18 08:32:24;;;;;;;20.15;14.82;;;17.70;99.90;;;;;;5049650;28;20488;-72
2023/06/18 08:34:50;;;;;;;20.40;14.63;;;17.70;99.90;;;;;;5049571;28;20065;-72
2023/06/18 08:37:15;;;;;;;20.35;14.60;;;17.80;99.90;;;;;;5049938;28;20079;-71
2023/06/18 08:39:41;;;;;;;18.65;13.80;;;17.80;99.90;;;;;;5052318;28;20051;-72
2023/06/18 08:42:08;;;;;;;19.02;13.20;;;17.90;99.90;;;;;;5053581;28;20075;-72
2023/06/18 08:44:34;;;;;;;19.25;14.52;;;17.90;99.90;;;;;;5052959;28;20037;-72
2023/06/18 08:47:03;;;;;;;16.92;12.45;;;18.00;99.90;;;;;;5053522;28;20366;-72
2023/06/18 08:49:33;;;;;;;16.95;13.55;;;18.10;99.90;;;;;;5051702;28;20087;-73
2023/06/18 08:52:08;;;;;;;13.13;11.05;;;18.20;99.90;;;;;;5053480;28;20029;-72
2023/06/18 08:54:35;;;;;;;14.35;11.63;;;18.40;99.90;;;;;;5051405;28;20107;-72
2023/06/18 08:57:16;;;;;;;12.80;11.48;;;18.40;99.90;;;;;;5053905;28;20074;-72
2023/06/18 08:59:44;;;;;;;19.15;11.02;;;18.70;99.90;;;;;;5052440;28;20036;-72
2023/06/18 09:02:12;;;;;;;13.75;10.20;;;18.80;99.90;;;;;;5052564;28;20022;-72
2023/06/18 09:04:39;;;;;;;11.20;8.93;;;19.10;99.90;;;;;;5052234;28;20039;-72
2023/06/18 09:07:05;;;;;;;11.18;9.30;;;19.50;99.90;;;;;;5053354;28;20048;-72
2023/06/18 09:09:31;;;;;;;10.98;8.63;;;19.90;99.90;;;;;;5052763;28;20025;-74
2023/06/18 09:11:57;;;;;;;10.82;9.40;;;20.10;99.90;;;;;;5052622;28;20021;-71
2023/06/18 09:14:24;;;;;;;10.13;8.63;;;20.40;99.90;;;;;;5053153;28;20096;-72
2023/06/18 09:16:52;;;;;;;11.93;10.20;;;20.40;99.90;;;;;;5052745;28;20025;-73
2023/06/18 09:19:19;;;;;;;10.73;9.43;;;20.20;99.90;;;;;;5052483;28;20426;-73
2023/06/18 09:21:46;;;;;;;14.32;10.48;;;20.30;99.90;;;;;;5052339;28;20120;-72
2023/06/18 09:24:23;;;;;;;15.80;10.32;;;20.00;99.90;;;;;;5052872;28;20411;-72
2023/06/18 09:27:01;;;;;;;13.63;11.15;;;19.90;99.90;;;;;;5033604;28;20072;-72
2023/06/18 09:29:32;;;;;;;10.55;9.50;;;19.90;99.90;;;;;;5052473;28;20136;-72
2023/06/18 09:32:09;;;;;;;15.02;10.48;;;20.00;99.90;;;;;;5052235;28;20078;-72
2023/06/18 09:34:36;;;;;;;12.00;10.10;;;20.20;99.90;;;;;;5051811;28;20035;-73
2023/06/18 09:37:04;;;;;;;13.95;11.02;;;20.20;99.90;;;;;;5052512;28;20545;-73
2023/06/18 09:39:29;;;;;;;19.83;14.25;;;20.20;99.90;;;;;;5051955;28;20035;-72
2023/06/18 09:42:03;;;;;;;17.98;13.13;;;20.20;99.90;;;;;;5050408;28;20024;-72
2023/06/18 09:44:29;;;;;;;18.55;14.07;;;20.00;99.90;;;;;;5052373;28;20071;-72
2023/06/18 09:46:56;;;;;;;18.10;12.88;;;19.90;99.90;;;;;;5051547;28;20033;-73
2023/06/18 09:49:24;;;;;;;15.18;11.95;;;19.90;99.90;;;;;;5051906;28;20037;-71
2023/06/18 09:51:50;;;;;;;18.67;14.07;;;19.90;99.90;;;;;;5051031;28;20063;-72
2023/06/18 09:54:16;;;;;;;18.77;13.25;;;19.90;99.90;;;;;;5051965;28;20075;-72
2023/06/18 09:57:02;;;;;;;15.43;12.13;;;19.90;99.90;;;;;;5050164;28;20025;-74
2023/06/18 09:59:29;;;;;;;11.52;10.25;;;19.90;99.90;;;;;;5052175;28;20052;-71
2023/06/18 10:01:55;;;;;;;14.38;11.13;;;19.90;99.90;;;;;;5050952;28;20025;-72
2023/06/18 10:04:22;;;;;;;11.55;10.35;;;19.70;99.90;;;;;;5052626;28;20454;-73
2023/06/18 10:06:53;;;;;;;11.38;9.15;;;19.70;99.90;;;;;;5051036;28;20021;-73
2023/06/18 10:09:20;;;;;;;11.68;10.05;;;19.90;99.90;;;;;;5051699;28;20033;-73
2023/06/18 10:11:50;;;;;;;13.50;10.75;;;20.10;99.90;;;;;;5052030;28;20040;-73
2023/06/18 10:14:20;;;;;;;11.15;10.00;;;20.00;99.90;;;;;;5051802;28;20037;-73
2023/06/18 10:16:51;;;;;;;11.45;10.27;;;19.80;99.90;;;;;;5052013;28;20084;-73
2023/06/18 10:19:22;;;;;;;12.77;10.70;;;19.80;99.90;;;;;;5053693;28;20041;-73
2023/06/18 10:21:59;;;;;;;12.97;10.60;;;19.90;99.90;;;;;;5051038;28;20438;-74
2023/06/18 10:24:47;;;;;;;11.38;10.18;;;19.80;99.90;;;;;;5051720;28;20047;-73
2023/06/18 10:27:14;;;;;;;12.43;10.45;;;19.90;99.90;;;;;;5052397;28;20045;-73
2023/06/18 10:29:41;;;;;;;12.05;9.85;;;19.90;99.90;;;;;;5050375;28;20041;-74
2023/06/18 10:32:07;;;;;;;11.68;8.90;;;20.10;99.90;;;;;;5052131;28;20056;-74
2023/06/18 10:34:33;;;;;;;13.57;10.45;;;20.40;99.90;;;;;;5051881;28;20462;-73
2023/06/18 10:37:00;;;;;;;17.15;11.50;;;20.60;99.90;;;;;;5050696;28;20451;-73
2023/06/18 10:39:27;;;;;;;15.18;11.60;;;20.60;99.90;;;;;;5051601;28;20056;-73
2023/06/18 10:41:54;;;;;;;15.90;11.40;;;20.70;99.90;;;;;;5050642;28;20100;-73
2023/06/18 10:44:57;;;;;;;15.15;10.55;;;20.50;99.90;;;;;;5051429;28;20047;-74
2023/06/18 10:47:31;;;;;;;12.32;9.88;;;20.40;99.90;;;;;;5030034;28;20041;-72
2023/06/18 10:50:03;;;;;;;12.25;9.85;;;20.60;99.90;;;;;;5050740;28;20037;-72
2023/06/18 10:52:30;;;;;;;12.88;9.68;;;20.60;99.90;;;;;;5051377;28;20454;-72
2023/06/18 10:55:18;;;;;;;14.27;9.25;;;20.70;99.90;;;;;;5051049;28;20029;-72
2023/06/18 10:57:57;;;;;;;9.27;8.30;;;20.60;99.90;;;;;;5050755;28;20029;-73
2023/06/18 11:00:28;;;;;;;10.60;7.85;;;20.60;99.90;;;;;;5051176;28;20032;-73
2023/06/18 11:03:12;;;;;;;11.10;8.82;;;20.70;99.90;;;;;;5050639;28;20070;-73
2023/06/18 11:05:48;;;;;;;10.85;9.57;;;20.80;99.90;;;;;;5050868;28;20027;-76
2023/06/18 11:08:16;;;;;;;10.30;9.20;;;20.80;99.90;;;;;;5051388;28;20025;-73
2023/06/18 11:10:47;;;;;;;11.57;9.00;;;20.70;99.90;;;;;;5049039;28;20032;-74
2023/06/18 11:13:13;;;;;;;12.00;8.85;;;20.60;99.90;;;;;;5050790;28;20095;-73
2023/06/18 11:16:18;;;;;;;13.20;8.38;;;20.70;99.90;;;;;;5050511;28;20056;-74
2023/06/18 11:18:44;;;;;;;12.00;9.50;;;20.80;99.90;;;;;;5007892;28;20072;-74
2023/06/18 11:21:17;;;;;;;14.38;9.23;;;20.70;99.90;;;;;;5008627;28;20034;-75
2023/06/18 11:23:43;;;;;;;10.10;8.27;;;20.50;99.90;;;;;;5008035;28;20117;-74
2023/06/18 11:26:16;;;;;;;11.25;8.45;;;20.60;99.90;;;;;;5008260;28;20029;-74
2023/06/18 11:28:43;;;;;;;10.00;8.60;;;20.50;99.90;;;;;;5007777;28;20160;-74
2023/06/18 11:31:10;;;;;;;10.93;8.63;;;20.20;99.90;;;;;;5008203;28;20050;-74
2023/06/18 11:33:36;;;;;;;9.00;8.10;;;20.20;99.90;;;;;;5008376;28;20052;-73
2023/06/18 11:36:10;;;;;;;15.63;9.48;;;20.40;99.90;;;;;;5007988;28;20037;-73
2023/06/18 11:38:37;;;;;;;10.48;8.60;;;20.30;99.90;;;;;;5008211;28;20030;-73
2023/06/18 11:41:03;;;;;;;18.73;9.15;;;20.30;99.90;;;;;;5008170;28;20132;-73
2023/06/18 11:43:46;;;;;;;13.38;9.52;;;20.30;99.90;;;;;;5008331;28;20498;-74
2023/06/18 11:46:36;;;;;;;10.27;8.20;;;20.30;99.90;;;;;;5008537;28;20037;-74
2023/06/18 11:49:02;;;;;;;9.73;7.43;;;20.20;99.90;;;;;;5012404;28;20048;-74
2023/06/18 11:51:30;;;;;;;9.02;7.68;;;20.20;99.90;;;;;;5050214;28;20467;-73
2023/06/18 11:53:57;;;;;;;11.88;7.68;;;20.30;99.90;;;;;;5049358;28;20350;-75
2023/06/18 11:56:25;;;;;;;9.85;6.18;;;20.50;99.90;;;;;;5048856;28;20132;-73
2023/06/18 11:58:52;;;;;;;6.63;5.95;;;20.60;99.90;;;;;;5049356;28;20021;-74
2023/06/18 12:01:17;;;;;;;12.32;7.03;;;20.80;99.90;;;;;;5050281;28;20138;-73
2023/06/18 12:03:44;;;;;;;6.70;6.10;;;20.90;99.90;;;;;;5049392;28;20037;-74
2023/06/18 12:06:15;;;;;;;8.73;6.80;;;20.90;99.90;;;;;;5050013;28;20040;-73
2023/06/18 12:08:45;;;;;;;7.50;6.32;;;20.90;99.90;;;;;;5048828;28;20029;-75
2023/06/18 12:11:27;;;;;;;8.25;6.85;;;21.10;99.90;;;;;;5050658;28;20489;-74
2023/06/18 12:14:01;;;;;;;9.00;6.20;;;21.10;99.90;;;;;;5051417;28;20462;-73
2023/06/18 12:16:30;;;;;;;8.35;6.53;;;21.20;99.90;;;;;;5054525;28;20025;-74
2023/06/18 12:19:00;;;;;;;9.10;6.47;;;21.20;99.90;;;;;;5052610;28;20198;-73
2023/06/18 12:21:26;;;;;;;8.60;5.90;;;21.20;99.90;;;;;;5054428;28;20031;-72
2023/06/18 12:23:53;;;;;;;7.07;5.80;;;21.20;99.90;;;;;;5053698;28;20025;-74
2023/06/18 12:26:19;;;;;;;9.30;6.57;;;21.30;99.90;;;;;;5054100;28;20037;-74
2023/06/18 12:28:44;;;;;;;8.88;6.32;;;21.30;99.90;;;;;;5053263;28;20467;-73
2023/06/18 12:31:11;;;;;;;7.93;6.60;;;21.40;99.90;;;;;;5053865;28;20029;-72